createdAt,value
2019-06-20T00:01:32.131Z,2.77
2019-06-20T00:03:58.369Z,2.75
2019-06-20T00:06:24.735Z,2.50
2019-06-20T00:08:51.058Z,2.95
2019-06-20T00:11:17.564Z,3.20
2019-06-20T00:13:43.809Z,3.27
2019-06-20T00:16:10.139Z,4.03
2019-06-20T00:18:36.393Z,3.12
2019-06-20T00:21:02.742Z,5.62
2019-06-20T00:23:29.252Z,7.95
2019-06-20T00:25:55.480Z,7.50
2019-06-20T00:28:21.773Z,6.92
2019-06-20T00:30:47.979Z,4.75
2019-06-20T00:33:14.378Z,5.90
2019-06-20T00:35:40.716Z,4.58
2019-06-20T00:38:07.166Z,5.05
2019-06-20T00:40:33.414Z,4.97
2019-06-20T00:43:13.410Z,5.08
2019-06-20T00:45:27.877Z,5.58
2019-06-20T00:47:54.157Z,3.80
2019-06-20T00:50:20.519Z,5.15
2019-06-20T00:52:46.799Z,5.33
2019-06-20T00:55:13.244Z,4.78
2019-06-20T00:57:39.617Z,3.75
2019-06-20T01:00:07.235Z,3.08
2019-06-20T01:02:33.561Z,4.80
2019-06-20T01:04:59.849Z,3.10
2019-06-20T01:07:26.071Z,3.12
2019-06-20T01:09:52.316Z,3.10
2019-06-20T01:12:18.551Z,3.10
2019-06-20T01:14:44.821Z,3.70
2019-06-20T01:17:11.183Z,3.10
2019-06-20T01:19:37.476Z,3.20
2019-06-20T01:22:03.872Z,2.83
2019-06-20T01:24:30.149Z,3.40
2019-06-20T01:26:56.411Z,3.50
2019-06-20T01:29:22.619Z,3.37
2019-06-20T01:31:48.794Z,3.30
2019-06-20T01:34:15.061Z,3.02
2019-06-20T01:36:41.422Z,2.85
2019-06-20T01:39:07.773Z,3.00
2019-06-20T01:41:34.247Z,3.30
2019-06-20T01:44:00.627Z,4.67
2019-06-20T01:46:27.014Z,5.12
2019-06-20T01:48:53.280Z,5.58
2019-06-20T01:51:19.548Z,3.20
2019-06-20T01:53:45.784Z,3.30
2019-06-20T01:56:12.083Z,3.47
2019-06-20T01:58:38.327Z,3.30
2019-06-20T02:01:04.874Z,3.42
2019-06-20T02:03:31.387Z,3.50
2019-06-20T02:05:57.626Z,3.37
2019-06-20T02:08:23.859Z,5.17
2019-06-20T02:10:50.340Z,3.67
2019-06-20T02:13:16.790Z,4.12
2019-06-20T02:15:43.121Z,3.22
2019-06-20T02:18:09.495Z,5.67
2019-06-20T02:20:51.678Z,3.52
2019-06-20T02:23:18.569Z,5.00
2019-06-20T02:25:45.388Z,3.67
2019-06-20T02:28:11.625Z,3.70
2019-06-20T02:30:38.128Z,5.85
2019-06-20T02:33:04.599Z,3.90
2019-06-20T02:35:31.047Z,5.97
2019-06-20T02:37:57.295Z,6.00
2019-06-20T02:40:23.630Z,5.83
2019-06-20T02:42:49.994Z,5.17
2019-06-20T02:45:17.250Z,4.20
2019-06-20T02:47:43.552Z,5.08
2019-06-20T02:50:11.020Z,3.77
2019-06-20T02:52:37.250Z,4.47
2019-06-20T02:55:03.846Z,5.03
2019-06-20T02:57:30.260Z,4.70
2019-06-20T02:59:56.491Z,4.42
2019-06-20T03:02:22.908Z,4.12
2019-06-20T03:04:49.387Z,4.15
2019-06-20T03:07:15.733Z,3.50
2019-06-20T03:09:42.008Z,3.77
2019-06-20T03:12:08.256Z,3.50
2019-06-20T03:14:45.091Z,4.10
2019-06-20T03:17:02.697Z,4.08
2019-06-20T03:19:28.965Z,4.10
2019-06-20T03:21:55.216Z,3.95
2019-06-20T03:24:21.480Z,3.25
2019-06-20T03:26:47.719Z,4.08
2019-06-20T03:29:14.112Z,4.28
2019-06-20T03:31:40.539Z,4.20
2019-06-20T03:34:06.988Z,4.33
2019-06-20T03:36:33.203Z,4.33
2019-06-20T03:38:59.480Z,3.17
2019-06-20T03:41:25.687Z,4.33
2019-06-20T03:43:51.953Z,4.97
2019-06-20T03:46:18.304Z,5.75
2019-06-20T03:48:44.578Z,5.53
2019-06-20T03:51:10.816Z,4.35
2019-06-20T03:53:37.041Z,3.58
2019-06-20T03:56:03.422Z,6.00
2019-06-20T03:58:29.781Z,3.80
2019-06-20T04:00:56.027Z,5.80
2019-06-20T04:03:22.261Z,3.72
2019-06-20T04:05:48.562Z,3.80
2019-06-20T04:08:14.787Z,4.10
2019-06-20T04:10:41.124Z,6.25
2019-06-20T04:13:07.358Z,4.78
2019-06-20T04:15:33.764Z,4.12
2019-06-20T04:18:00.120Z,4.35
2019-06-20T04:20:26.366Z,3.98
2019-06-20T04:22:52.758Z,6.08
2019-06-20T04:25:19.922Z,4.53
2019-06-20T04:27:46.288Z,7.65
2019-06-20T04:30:12.779Z,3.95
2019-06-20T04:32:38.997Z,6.22
2019-06-20T04:35:05.738Z,5.83
2019-06-20T04:37:32.082Z,8.20
2019-06-20T04:39:58.340Z,4.87
2019-06-20T04:42:24.578Z,4.65
2019-06-20T04:44:52.766Z,5.55
2019-06-20T04:47:18.990Z,4.83
2019-06-20T04:49:45.274Z,9.43
2019-06-20T04:52:11.595Z,5.30
2019-06-20T04:54:37.779Z,9.93
2019-06-20T04:57:04.168Z,5.50
2019-06-20T04:59:30.522Z,9.93
2019-06-20T05:01:56.761Z,5.28
2019-06-20T05:04:23.113Z,9.80
2019-06-20T05:06:53.171Z,5.50
2019-06-20T05:09:19.419Z,11.53
2019-06-20T05:11:45.636Z,11.03
2019-06-20T05:14:11.926Z,11.60
2019-06-20T05:16:38.170Z,5.40
2019-06-20T05:19:04.620Z,11.53
2019-06-20T05:21:31.023Z,6.58
2019-06-20T05:23:57.267Z,6.72
2019-06-20T05:26:23.485Z,12.55
2019-06-20T05:28:49.772Z,13.35
2019-06-20T05:31:16.212Z,14.70
2019-06-20T05:33:42.448Z,11.90
2019-06-20T05:36:08.749Z,7.60
2019-06-20T05:38:34.972Z,12.60
2019-06-20T05:41:01.246Z,10.98
2019-06-20T05:43:28.079Z,9.70
2019-06-20T05:46:08.395Z,18.00
2019-06-20T05:48:22.368Z,10.05
2019-06-20T05:50:48.681Z,18.70
2019-06-20T05:53:15.001Z,17.07
2019-06-20T05:55:41.375Z,17.05
2019-06-20T05:58:07.653Z,17.37
2019-06-20T06:00:34.143Z,17.85
2019-06-20T06:03:00.440Z,20.60
2019-06-20T06:05:26.871Z,21.12
2019-06-20T06:07:53.098Z,10.93
2019-06-20T06:10:20.488Z,28.15
2019-06-20T06:12:46.773Z,16.20
2019-06-20T06:15:14.239Z,16.57
2019-06-20T06:17:40.524Z,26.65
2019-06-20T06:20:09.158Z,29.05
2019-06-20T06:22:35.645Z,25.90
2019-06-20T06:25:02.614Z,24.92
2019-06-20T06:27:28.952Z,20.88
2019-06-20T06:29:55.374Z,24.70
2019-06-20T06:32:21.610Z,21.55
2019-06-20T06:34:47.885Z,34.33
2019-06-20T06:37:14.165Z,31.48
2019-06-20T06:39:43.422Z,23.52
2019-06-20T06:42:08.615Z,29.48
2019-06-20T06:44:34.895Z,32.35
2019-06-20T06:47:01.105Z,26.50
2019-06-20T06:49:27.541Z,23.10
2019-06-20T06:51:53.818Z,32.65
2019-06-20T06:54:20.127Z,29.15
2019-06-20T06:56:46.481Z,23.00
2019-06-20T06:59:12.979Z,28.83
2019-06-20T07:01:39.333Z,27.27
2019-06-20T07:04:05.795Z,36.58
2019-06-20T07:06:32.151Z,28.12
2019-06-20T07:08:58.454Z,29.00
2019-06-20T07:11:24.703Z,34.60
2019-06-20T07:13:51.091Z,39.58
2019-06-20T07:16:17.312Z,35.15
2019-06-20T07:18:43.539Z,36.25
2019-06-20T07:21:09.879Z,27.87
2019-06-20T07:23:36.243Z,40.12
2019-06-20T07:26:03.018Z,37.23
2019-06-20T07:28:29.254Z,31.15
2019-06-20T07:30:55.476Z,40.28
2019-06-20T07:33:21.665Z,32.28
2019-06-20T07:35:47.991Z,33.73
2019-06-20T07:38:14.157Z,30.32
2019-06-20T07:40:40.488Z,33.35
2019-06-20T07:43:06.940Z,37.23
2019-06-20T07:45:33.304Z,27.82
2019-06-20T07:47:59.432Z,30.80
2019-06-20T07:50:26.019Z,33.10
2019-06-20T07:53:02.013Z,30.32
2019-06-20T07:55:20.850Z,35.85
2019-06-20T07:57:47.198Z,33.95
2019-06-20T08:00:15.473Z,27.40
2019-06-20T08:02:41.979Z,29.27
2019-06-20T08:05:09.143Z,27.30
2019-06-20T08:07:35.654Z,31.30
2019-06-20T08:10:10.963Z,33.98
2019-06-20T08:12:37.274Z,30.35
2019-06-20T08:15:15.003Z,32.35
2019-06-20T08:17:35.793Z,27.27
2019-06-20T08:20:05.099Z,29.82
2019-06-20T08:22:31.467Z,25.70
2019-06-20T08:24:58.951Z,26.27
2019-06-20T08:27:43.999Z,20.55
2019-06-20T08:30:10.425Z,23.38
2019-06-20T08:32:36.709Z,20.12
2019-06-20T08:35:04.861Z,17.57
2019-06-20T08:37:31.243Z,20.68
2019-06-20T08:39:58.422Z,21.20
2019-06-20T08:42:24.795Z,18.20
2019-06-20T08:44:51.133Z,22.98
2019-06-20T08:47:17.489Z,23.95
2019-06-20T08:49:43.935Z,18.87
2019-06-20T08:52:10.198Z,19.32
2019-06-20T08:54:36.420Z,21.55
2019-06-20T08:57:04.034Z,25.27
2019-06-20T08:59:30.945Z,25.95
2019-06-20T09:01:58.799Z,23.83
2019-06-20T09:04:25.379Z,18.48
2019-06-20T09:06:51.616Z,24.43
2019-06-20T09:09:18.046Z,24.70
2019-06-20T09:11:44.394Z,18.70
2019-06-20T09:14:10.747Z,22.32
2019-06-20T09:16:37.123Z,23.77
2019-06-20T09:19:03.577Z,22.98
2019-06-20T09:21:29.938Z,23.80
2019-06-20T09:23:57.717Z,23.62
2019-06-20T09:26:24.061Z,24.98
2019-06-20T09:28:50.948Z,22.07
2019-06-20T09:31:18.407Z,21.42
2019-06-20T09:33:44.659Z,24.77
2019-06-20T09:36:10.922Z,17.45
2019-06-20T09:38:37.322Z,25.15
2019-06-20T09:41:03.964Z,20.57
2019-06-20T09:43:30.239Z,22.30
2019-06-20T09:45:56.487Z,19.42
2019-06-20T09:48:22.768Z,18.98
2019-06-20T09:50:50.847Z,22.15
2019-06-20T09:53:17.158Z,16.97
2019-06-20T09:55:43.626Z,15.88
2019-06-20T09:58:10.003Z,21.45
2019-06-20T10:00:37.510Z,21.65
2019-06-20T10:03:04.345Z,22.65
2019-06-20T10:05:30.650Z,20.88
2019-06-20T10:07:57.020Z,22.05
2019-06-20T10:10:27.625Z,15.65
2019-06-20T10:12:54.201Z,14.68
2019-06-20T10:15:26.460Z,21.05
2019-06-20T10:17:54.437Z,24.65
2019-06-20T10:20:21.662Z,22.30
2019-06-20T10:22:48.537Z,16.48
2019-06-20T10:25:15.355Z,16.37
2019-06-20T10:27:41.815Z,19.70
2019-06-20T10:30:14.259Z,19.02
2019-06-20T10:32:36.714Z,21.68
2019-06-20T10:35:05.236Z,19.73
2019-06-20T10:37:31.533Z,21.10
2019-06-20T10:39:57.759Z,21.07
2019-06-20T10:42:23.983Z,17.00
2019-06-20T10:44:50.314Z,13.60
2019-06-20T10:47:28.942Z,11.78
2019-06-20T10:49:46.186Z,10.85
2019-06-20T10:52:12.574Z,10.95
2019-06-20T10:54:38.924Z,9.65
2019-06-20T10:57:05.297Z,7.87
2019-06-20T10:59:31.552Z,8.18
2019-06-20T11:01:57.821Z,8.25
2019-06-20T11:04:24.090Z,7.25
2019-06-20T11:06:50.513Z,7.00
2019-06-20T11:09:16.782Z,7.72
2019-06-20T11:11:43.097Z,7.75
2019-06-20T11:14:09.576Z,7.45
2019-06-20T11:16:36.109Z,7.30
2019-06-20T11:19:02.608Z,7.80
2019-06-20T11:21:28.951Z,7.50
2019-06-20T11:23:55.231Z,8.63
2019-06-20T11:26:21.829Z,9.08
2019-06-20T11:28:48.721Z,8.48
2019-06-20T11:31:15.350Z,9.38
2019-06-20T11:33:42.099Z,8.93
2019-06-20T11:36:08.693Z,7.90
2019-06-20T11:38:34.956Z,9.28
2019-06-20T11:41:01.296Z,8.10
2019-06-20T11:43:27.564Z,8.70
2019-06-20T11:45:53.786Z,7.55
2019-06-20T11:48:20.052Z,7.72
2019-06-20T11:50:46.533Z,7.87
2019-06-20T11:53:12.915Z,7.95
2019-06-20T11:55:39.634Z,7.33
2019-06-20T11:58:06.153Z,9.35
2019-06-20T12:00:32.614Z,9.00
2019-06-20T12:02:59.037Z,8.45
2019-06-20T12:05:25.375Z,9.30
2019-06-20T12:07:51.824Z,11.20
2019-06-20T12:10:20.329Z,9.83
2019-06-20T12:12:46.914Z,12.55
2019-06-20T12:15:15.615Z,11.83
2019-06-20T12:17:43.317Z,11.73
2019-06-20T12:20:10.841Z,9.98
2019-06-20T12:22:38.316Z,13.80
2019-06-20T12:25:06.857Z,11.15
2019-06-20T12:27:33.248Z,12.45
2019-06-20T12:29:59.508Z,11.80
2019-06-20T12:32:25.764Z,11.05
2019-06-20T12:34:52.079Z,12.07
2019-06-20T12:37:18.435Z,9.03
2019-06-20T12:39:44.762Z,10.75
2019-06-20T12:42:11.007Z,10.23
2019-06-20T12:44:38.503Z,9.75
2019-06-20T12:47:05.396Z,8.60
2019-06-20T12:49:31.628Z,9.68
2019-06-20T12:51:57.877Z,9.23
2019-06-20T12:54:24.115Z,9.78
2019-06-20T12:56:50.426Z,7.65
2019-06-20T12:59:17.144Z,8.70
2019-06-20T13:01:46.540Z,9.10
2019-06-20T13:04:11.630Z,9.03
2019-06-20T13:06:39.268Z,8.90
2019-06-20T13:09:06.421Z,8.60
2019-06-20T13:11:32.788Z,7.95
2019-06-20T13:13:59.036Z,7.28
2019-06-20T13:16:25.315Z,8.33
2019-06-20T13:18:51.679Z,8.13
2019-06-20T13:21:19.026Z,8.10
2019-06-20T13:23:45.527Z,9.70
2019-06-20T13:26:11.814Z,9.40
2019-06-20T13:29:00.732Z,9.95
2019-06-20T13:31:15.270Z,8.48
2019-06-20T13:33:42.424Z,9.18
2019-06-20T13:36:08.994Z,9.63
2019-06-20T13:38:35.366Z,8.63
2019-06-20T13:41:01.731Z,9.25
2019-06-20T13:43:27.977Z,8.20
2019-06-20T13:45:54.343Z,9.05
2019-06-20T13:48:20.643Z,9.85
2019-06-20T13:50:47.440Z,9.90
2019-06-20T13:53:13.721Z,9.63
2019-06-20T13:55:41.205Z,10.40
2019-06-20T13:58:08.251Z,11.45
2019-06-20T14:00:34.624Z,11.97
2019-06-20T14:03:00.882Z,11.48
2019-06-20T14:05:27.224Z,12.07
2019-06-20T14:07:55.566Z,10.75
2019-06-20T14:10:21.972Z,11.15
2019-06-20T14:12:48.793Z,12.80
2019-06-20T14:15:15.964Z,10.50
2019-06-20T14:17:43.203Z,11.28
2019-06-20T14:20:11.302Z,10.53
2019-06-20T14:22:37.536Z,10.55
2019-06-20T14:25:04.927Z,11.93
2019-06-20T14:27:31.252Z,10.08
2019-06-20T14:29:57.561Z,8.13
2019-06-20T14:32:23.797Z,11.05
2019-06-20T14:34:50.337Z,9.65
2019-06-20T14:37:16.695Z,9.70
2019-06-20T14:39:44.867Z,9.20
2019-06-20T14:42:11.265Z,12.60
2019-06-20T14:44:37.631Z,8.98
2019-06-20T14:47:03.917Z,9.58
2019-06-20T14:49:30.237Z,9.90
2019-06-20T14:51:56.513Z,11.70
2019-06-20T14:54:22.843Z,9.65
2019-06-20T14:56:49.765Z,8.85
2019-06-20T14:59:16.080Z,10.50
2019-06-20T15:01:44.585Z,8.40
2019-06-20T15:04:10.474Z,9.58
2019-06-20T15:06:48.392Z,8.40
2019-06-20T15:09:14.811Z,10.20
2019-06-20T15:11:41.088Z,9.95
2019-06-20T15:14:07.851Z,10.78
2019-06-20T15:16:34.163Z,11.33
2019-06-20T15:19:00.419Z,12.03
2019-06-20T15:21:26.837Z,11.40
2019-06-20T15:23:54.413Z,11.10
2019-06-20T15:26:22.711Z,11.95
2019-06-20T15:28:49.754Z,11.15
2019-06-20T15:31:17.193Z,10.85
2019-06-20T15:33:43.668Z,10.40
2019-06-20T15:36:10.071Z,10.25
2019-06-20T15:38:36.414Z,9.93
2019-06-20T15:41:02.773Z,9.18
2019-06-20T15:43:29.042Z,8.48
2019-06-20T15:45:55.860Z,10.90
2019-06-20T15:48:22.145Z,9.65
2019-06-20T15:50:48.512Z,12.68
2019-06-20T15:53:14.873Z,10.58
2019-06-20T15:55:41.271Z,7.92
2019-06-20T15:58:07.745Z,5.47
2019-06-20T16:00:35.341Z,5.28
2019-06-20T16:03:09.876Z,7.67
2019-06-20T16:05:29.787Z,21.80
2019-06-20T16:07:59.122Z,32.53
2019-06-20T16:10:25.577Z,77.37
2019-06-20T16:12:51.850Z,15.43
2019-06-20T16:15:21.301Z,6.12
2019-06-20T16:17:47.581Z,5.45
2019-06-20T16:20:14.745Z,4.97
2019-06-20T16:22:40.982Z,4.78
2019-06-20T16:25:07.249Z,4.55
2019-06-20T16:27:33.642Z,4.50
2019-06-20T16:29:59.875Z,5.22
2019-06-20T16:32:26.123Z,6.03
2019-06-20T16:34:52.539Z,5.15
2019-06-20T16:37:18.860Z,5.65
2019-06-20T16:39:45.368Z,6.20
2019-06-20T16:42:11.589Z,4.97
2019-06-20T16:44:37.851Z,4.78
2019-06-20T16:47:04.116Z,4.33
2019-06-20T16:49:30.453Z,4.08
2019-06-20T16:51:56.842Z,5.17
2019-06-20T16:54:23.200Z,5.85
2019-06-20T16:56:49.498Z,4.35
2019-06-20T16:59:15.718Z,5.17
2019-06-20T17:01:42.092Z,4.17
2019-06-20T17:04:08.478Z,4.37
2019-06-20T17:06:34.944Z,3.55
2019-06-20T17:09:01.283Z,3.33
2019-06-20T17:11:27.524Z,3.50
2019-06-20T17:13:53.805Z,3.08
2019-06-20T17:16:20.035Z,3.52
2019-06-20T17:18:46.513Z,4.53
2019-06-20T17:21:13.395Z,4.53
2019-06-20T17:23:39.621Z,5.12
2019-06-20T17:26:06.082Z,5.37
2019-06-20T17:28:32.362Z,4.12
2019-06-20T17:30:58.775Z,5.70
2019-06-20T17:33:24.983Z,5.50
2019-06-20T17:35:51.326Z,6.30
2019-06-20T17:38:17.641Z,6.75
2019-06-20T17:40:43.888Z,5.78
2019-06-20T17:43:10.183Z,5.40
2019-06-20T17:45:36.654Z,6.28
2019-06-20T17:48:03.056Z,6.47
2019-06-20T17:50:29.435Z,6.60
2019-06-20T17:52:55.813Z,4.95
2019-06-20T17:55:22.242Z,5.75
2019-06-20T17:57:48.476Z,6.50
2019-06-20T18:00:17.773Z,4.67
2019-06-20T18:02:44.036Z,6.47
2019-06-20T18:05:11.995Z,6.37
2019-06-20T18:07:38.389Z,6.28
2019-06-20T18:10:05.844Z,6.30
2019-06-20T18:12:32.229Z,6.45
2019-06-20T18:14:58.851Z,6.83
2019-06-20T18:17:25.166Z,7.80
2019-06-20T18:19:51.519Z,7.40
2019-06-20T18:22:17.756Z,5.28
2019-06-20T18:24:44.017Z,6.28
2019-06-20T18:27:10.294Z,7.08
2019-06-20T18:29:36.547Z,5.47
2019-06-20T18:32:04.776Z,6.35
2019-06-20T18:34:31.042Z,5.37
2019-06-20T18:36:57.322Z,6.30
2019-06-20T18:39:23.596Z,7.67
2019-06-20T18:41:49.968Z,8.03
2019-06-20T18:44:16.340Z,7.50
2019-06-20T18:46:42.639Z,5.65
2019-06-20T18:49:09.064Z,5.12
2019-06-20T18:51:35.398Z,6.10
2019-06-20T18:54:01.684Z,5.30
2019-06-20T18:56:28.001Z,6.05
2019-06-20T18:58:56.044Z,5.67
2019-06-20T19:01:22.280Z,6.25
2019-06-20T19:03:48.654Z,7.17
2019-06-20T19:06:15.024Z,7.15
2019-06-20T19:08:41.278Z,6.20
2019-06-20T19:11:07.750Z,6.60
2019-06-20T19:13:34.109Z,7.22
2019-06-20T19:16:00.483Z,5.62
2019-06-20T19:18:26.776Z,6.72
2019-06-20T19:20:53.160Z,5.17
2019-06-20T19:23:19.623Z,6.97
2019-06-20T19:25:45.996Z,6.10
2019-06-20T19:28:14.010Z,6.75
2019-06-20T19:30:50.737Z,6.67
2019-06-20T19:33:17.191Z,6.08
2019-06-20T19:35:43.551Z,5.90
2019-06-20T19:38:12.606Z,5.42
2019-06-20T19:40:44.998Z,6.05
2019-06-20T19:43:11.456Z,5.65
2019-06-20T19:45:37.930Z,5.42
2019-06-20T19:48:04.266Z,6.58
2019-06-20T19:50:30.671Z,6.33
2019-06-20T19:52:57.042Z,7.53
2019-06-20T19:55:25.381Z,6.10
2019-06-20T19:57:51.752Z,5.58
2019-06-20T20:00:20.523Z,8.40
2019-06-20T20:02:46.872Z,9.93
2019-06-20T20:05:19.280Z,10.15
2019-06-20T20:07:41.706Z,10.55
2019-06-20T20:10:08.669Z,10.65
2019-06-20T20:12:34.944Z,7.45
2019-06-20T20:15:01.363Z,8.10
2019-06-20T20:17:27.952Z,12.50
2019-06-20T20:19:54.236Z,12.20
2019-06-20T20:22:20.524Z,9.35
2019-06-20T20:24:46.832Z,9.10
2019-06-20T20:27:13.490Z,10.38
2019-06-20T20:29:39.728Z,8.45
2019-06-20T20:32:05.997Z,11.05
2019-06-20T20:34:32.276Z,8.93
2019-06-20T20:36:58.521Z,9.43
2019-06-20T20:39:24.809Z,13.62
2019-06-20T20:41:51.071Z,10.70
2019-06-20T20:44:17.342Z,14.43
2019-06-20T20:46:43.637Z,13.68
2019-06-20T20:49:09.872Z,15.58
2019-06-20T20:51:36.179Z,15.08
2019-06-20T20:54:02.543Z,11.88
2019-06-20T20:56:28.977Z,14.80
2019-06-20T20:58:55.226Z,12.93
2019-06-20T21:01:29.420Z,10.03
2019-06-20T21:03:55.872Z,12.47
2019-06-20T21:06:22.130Z,13.50
2019-06-20T21:08:48.387Z,13.80
2019-06-20T21:11:14.828Z,13.93
2019-06-20T21:13:41.086Z,13.15
2019-06-20T21:16:07.376Z,13.58
2019-06-20T21:18:33.624Z,13.98
2019-06-20T21:20:59.851Z,13.03
2019-06-20T21:23:26.102Z,12.93
2019-06-20T21:25:52.439Z,12.68
2019-06-20T21:28:18.690Z,11.85
2019-06-20T21:30:45.111Z,13.60
2019-06-20T21:33:11.342Z,10.98
2019-06-20T21:35:37.619Z,13.60
2019-06-20T21:38:03.903Z,12.10
2019-06-20T21:40:30.302Z,12.45
2019-06-20T21:42:56.589Z,12.37
2019-06-20T21:45:23.014Z,12.18
2019-06-20T21:47:49.245Z,9.95
2019-06-20T21:50:16.199Z,8.50
2019-06-20T21:52:42.407Z,10.30
2019-06-20T21:55:09.152Z,12.90
2019-06-20T21:57:35.462Z,9.58
2019-06-20T22:00:05.489Z,12.53
2019-06-20T22:02:31.860Z,13.32
2019-06-20T22:04:58.194Z,12.25
2019-06-20T22:07:24.600Z,10.82
2019-06-20T22:09:51.087Z,11.45
2019-06-20T22:12:17.445Z,11.00
2019-06-20T22:14:45.799Z,10.82
2019-06-20T22:17:12.097Z,13.80
2019-06-20T22:19:38.343Z,13.60
2019-06-20T22:22:04.841Z,13.53
2019-06-20T22:24:31.154Z,10.10
2019-06-20T22:26:57.488Z,9.20
2019-06-20T22:29:23.707Z,7.35
2019-06-20T22:31:50.071Z,10.72
2019-06-20T22:34:36.213Z,10.82
2019-06-20T22:37:02.670Z,10.18
2019-06-20T22:39:28.926Z,10.98
2019-06-20T22:41:55.353Z,11.35
2019-06-20T22:44:21.607Z,11.97
2019-06-20T22:46:47.897Z,10.53
2019-06-20T22:49:14.206Z,10.00
2019-06-20T22:51:40.574Z,10.78
2019-06-20T22:54:06.862Z,10.78
2019-06-20T22:56:33.125Z,9.53
2019-06-20T22:58:59.465Z,6.80
2019-06-20T23:01:25.739Z,9.18
2019-06-20T23:03:51.989Z,9.55
2019-06-20T23:06:18.255Z,6.78
2019-06-20T23:08:44.419Z,7.42
2019-06-20T23:11:10.663Z,6.25
2019-06-20T23:13:36.971Z,7.75
2019-06-20T23:16:03.377Z,6.58
2019-06-20T23:18:29.644Z,5.33
2019-06-20T23:21:04.658Z,6.10
2019-06-20T23:23:24.131Z,6.28
2019-06-20T23:25:52.355Z,6.00
2019-06-20T23:28:18.678Z,5.45
2019-06-20T23:30:44.978Z,6.20
2019-06-20T23:33:11.229Z,3.95
2019-06-20T23:35:37.508Z,6.67
2019-06-20T23:38:03.935Z,4.60
2019-06-20T23:40:30.162Z,6.17
2019-06-20T23:42:56.425Z,5.30
2019-06-20T23:45:22.882Z,4.85
2019-06-20T23:47:49.177Z,6.03
2019-06-20T23:50:19.150Z,4.20
2019-06-20T23:52:49.863Z,4.95
2019-06-20T23:55:16.369Z,4.95
2019-06-20T23:57:42.617Z,4.80
